sensor_id;sensor_type;location;lat;lon;timestamp;pressure;altitude;pressure_sealevel;temperature;humidity
22830;BME280;11581;51.250;6.778;2023-07-16T00:01:00;100465.72;;;21.94;62.41
22830;BME280;11581;51.250;6.778;2023-07-16T00:03:28;100532.25;;;22.33;62.68
22830;BME280;11581;51.250;6.778;2023-07-16T00:05:55;100535.81;;;22.34;62.60
22830;BME280;11581;51.250;6.778;2023-07-16T00:08:22;100533.94;;;22.34;62.55
22830;BME280;11581;51.250;6.778;2023-07-16T00:10:48;100536.66;;;22.34;62.58
22830;BME280;11581;51.250;6.778;2023-07-16T00:13:15;100543.75;;;22.35;62.73
22830;BME280;11581;51.250;6.778;2023-07-16T00:15:42;100547.31;;;22.36;62.81
22830;BME280;11581;51.250;6.778;2023-07-16T00:18:08;100544.19;;;22.32;62.81
22830;BME280;11581;51.250;6.778;2023-07-16T00:20:36;100558.53;;;22.39;62.86
22830;BME280;11581;51.250;6.778;2023-07-16T00:23:03;100557.47;;;22.40;62.92
22830;BME280;11581;51.250;6.778;2023-07-16T00:25:29;100546.69;;;22.34;63.02
22830;BME280;11581;51.250;6.778;2023-07-16T00:27:57;100547.06;;;22.37;62.88
22830;BME280;11581;51.250;6.778;2023-07-16T00:30:23;100558.69;;;22.44;62.85
22830;BME280;11581;51.250;6.778;2023-07-16T00:32:50;100569.53;;;22.44;62.80
22830;BME280;11581;51.250;6.778;2023-07-16T00:35:16;100560.78;;;22.42;62.84
22830;BME280;11581;51.250;6.778;2023-07-16T00:37:44;100565.03;;;22.38;62.88
22830;BME280;11581;51.250;6.778;2023-07-16T00:40:11;100556.72;;;22.33;62.97
22830;BME280;11581;51.250;6.778;2023-07-16T00:42:38;100556.81;;;22.27;62.97
22830;BME280;11581;51.250;6.778;2023-07-16T00:45:10;100570.47;;;22.20;63.51
22830;BME280;11581;51.250;6.778;2023-07-16T00:47:38;100572.44;;;22.13;63.17
22830;BME280;11581;51.250;6.778;2023-07-16T00:50:07;100572.53;;;22.07;63.65
22830;BME280;11581;51.250;6.778;2023-07-16T00:52:34;100561.81;;;21.93;63.75
22830;BME280;11581;51.250;6.778;2023-07-16T00:55:02;100568.50;;;21.91;64.24
22830;BME280;11581;51.250;6.778;2023-07-16T00:57:29;100565.03;;;21.84;64.30
22830;BME280;11581;51.250;6.778;2023-07-16T00:59:56;100566.13;;;21.76;64.39
22830;BME280;11581;51.250;6.778;2023-07-16T01:02:23;100566.19;;;21.70;64.75
22830;BME280;11581;51.250;6.778;2023-07-16T01:04:49;100565.44;;;21.63;64.80
22830;BME280;11581;51.250;6.778;2023-07-16T01:07:18;100566.31;;;21.57;65.39
22830;BME280;11581;51.250;6.778;2023-07-16T01:09:44;100515.13;;;21.18;65.33
22830;BME280;11581;51.250;6.778;2023-07-16T01:12:13;100508.47;;;21.14;65.95
22830;BME280;11581;51.250;6.778;2023-07-16T01:14:40;100565.22;;;21.40;65.85
22830;BME280;11581;51.250;6.778;2023-07-16T01:17:07;100560.25;;;21.37;66.17
22830;BME280;11581;51.250;6.778;2023-07-16T01:19:34;100546.00;;;21.17;66.76
22830;BME280;11581;51.250;6.778;2023-07-16T01:22:10;100575.50;;;21.31;67.41
22830;BME280;11581;51.250;6.778;2023-07-16T01:25:01;100566.53;;;21.31;67.74
22830;BME280;11581;51.250;6.778;2023-07-16T01:27:50;100556.34;;;21.26;67.81
22830;BME280;11581;51.250;6.778;2023-07-16T01:30:20;100496.34;;;20.92;67.32
22830;BME280;11581;51.250;6.778;2023-07-16T01:32:50;100550.28;;;21.31;67.26
22830;BME280;11581;51.250;6.778;2023-07-16T01:35:17;100566.88;;;21.41;66.80
22830;BME280;11581;51.250;6.778;2023-07-16T01:37:44;100572.31;;;21.41;66.84
22830;BME280;11581;51.250;6.778;2023-07-16T01:40:11;100574.78;;;21.42;66.63
22830;BME280;11581;51.250;6.778;2023-07-16T01:42:38;100557.75;;;21.35;66.23
22830;BME280;11581;51.250;6.778;2023-07-16T01:45:05;100583.16;;;21.41;66.14
22830;BME280;11581;51.250;6.778;2023-07-16T01:47:40;100587.97;;;21.39;66.44
22830;BME280;11581;51.250;6.778;2023-07-16T01:50:11;100587.38;;;21.37;66.01
22830;BME280;11581;51.250;6.778;2023-07-16T01:52:38;100590.28;;;21.35;65.93
22830;BME280;11581;51.250;6.778;2023-07-16T01:55:05;100595.31;;;21.32;65.69
22830;BME280;11581;51.250;6.778;2023-07-16T01:57:31;100596.59;;;21.29;65.93
22830;BME280;11581;51.250;6.778;2023-07-16T01:59:58;100592.69;;;21.25;65.89
22830;BME280;11581;51.250;6.778;2023-07-16T02:02:25;100599.34;;;21.23;65.73
22830;BME280;11581;51.250;6.778;2023-07-16T02:04:53;100596.03;;;21.21;66.08
22830;BME280;11581;51.250;6.778;2023-07-16T02:07:19;100591.66;;;21.20;65.88
22830;BME280;11581;51.250;6.778;2023-07-16T02:09:46;100601.28;;;21.16;65.88
22830;BME280;11581;51.250;6.778;2023-07-16T02:12:12;100597.94;;;21.14;65.87
22830;BME280;11581;51.250;6.778;2023-07-16T02:14:39;100599.22;;;21.11;66.16
22830;BME280;11581;51.250;6.778;2023-07-16T02:17:06;100608.41;;;21.10;65.95
22830;BME280;11581;51.250;6.778;2023-07-16T02:19:32;100586.41;;;20.94;65.86
22830;BME280;11581;51.250;6.778;2023-07-16T02:22:00;100605.53;;;21.05;66.08
22830;BME280;11581;51.250;6.778;2023-07-16T02:24:27;100617.63;;;21.03;66.14
22830;BME280;11581;51.250;6.778;2023-07-16T02:26:54;100620.56;;;21.01;66.24
22830;BME280;11581;51.250;6.778;2023-07-16T02:29:20;100611.00;;;20.99;66.32
22830;BME280;11581;51.250;6.778;2023-07-16T02:31:47;100622.88;;;20.98;66.21
22830;BME280;11581;51.250;6.778;2023-07-16T02:34:14;100606.84;;;20.90;66.35
22830;BME280;11581;51.250;6.778;2023-07-16T02:36:40;100618.94;;;20.94;66.43
22830;BME280;11581;51.250;6.778;2023-07-16T02:39:08;100633.53;;;20.93;66.28
22830;BME280;11581;51.250;6.778;2023-07-16T02:41:35;100632.91;;;20.91;66.07
22830;BME280;11581;51.250;6.778;2023-07-16T02:44:04;100637.72;;;20.89;66.06
22830;BME280;11581;51.250;6.778;2023-07-16T02:46:31;100640.66;;;20.87;66.12
22830;BME280;11581;51.250;6.778;2023-07-16T02:48:58;100641.88;;;20.85;66.01
22830;BME280;11581;51.250;6.778;2023-07-16T02:51:24;100646.72;;;20.83;65.95
22830;BME280;11581;51.250;6.778;2023-07-16T02:53:51;100649.84;;;20.80;65.89
22830;BME280;11581;51.250;6.778;2023-07-16T02:56:19;100652.78;;;20.78;65.51
22830;BME280;11581;51.250;6.778;2023-07-16T02:58:45;100650.28;;;20.77;65.38
22830;BME280;11581;51.250;6.778;2023-07-16T03:01:14;100653.22;;;20.75;64.99
22830;BME280;11581;51.250;6.778;2023-07-16T03:03:40;100621.88;;;20.48;65.11
22830;BME280;11581;51.250;6.778;2023-07-16T03:06:08;100672.59;;;20.72;64.82
22830;BME280;11581;51.250;6.778;2023-07-16T03:08:35;100657.63;;;20.70;64.64
22830;BME280;11581;51.250;6.778;2023-07-16T03:11:01;100665.75;;;20.70;64.05
22830;BME280;11581;51.250;6.778;2023-07-16T03:13:29;100614.59;;;20.36;63.67
22830;BME280;11581;51.250;6.778;2023-07-16T03:15:56;100661.59;;;20.67;63.77
22830;BME280;11581;51.250;6.778;2023-07-16T03:18:27;100677.00;;;20.67;62.73
22830;BME280;11581;51.250;6.778;2023-07-16T03:20:54;100669.94;;;20.66;63.00
22830;BME280;11581;51.250;6.778;2023-07-16T03:23:21;100674.50;;;20.65;62.97
22830;BME280;11581;51.250;6.778;2023-07-16T03:25:48;100679.09;;;20.65;62.76
22830;BME280;11581;51.250;6.778;2023-07-16T03:28:15;100684.34;;;20.60;62.53
22830;BME280;11581;51.250;6.778;2023-07-16T03:30:46;100693.47;;;20.65;61.87
22830;BME280;11581;51.250;6.778;2023-07-16T03:33:12;100685.13;;;20.67;62.45
22830;BME280;11581;51.250;6.778;2023-07-16T03:35:39;100693.06;;;20.68;62.33
22830;BME280;11581;51.250;6.778;2023-07-16T03:38:05;100703.69;;;20.70;62.26
22830;BME280;11581;51.250;6.778;2023-07-16T03:40:33;100703.47;;;20.71;61.92
22830;BME280;11581;51.250;6.778;2023-07-16T03:43:00;100699.69;;;20.72;61.83
22830;BME280;11581;51.250;6.778;2023-07-16T03:45:26;100710.31;;;20.74;61.77
22830;BME280;11581;51.250;6.778;2023-07-16T03:47:54;100711.97;;;20.75;61.18
22830;BME280;11581;51.250;6.778;2023-07-16T03:50:21;100719.09;;;20.76;61.30
22830;BME280;11581;51.250;6.778;2023-07-16T03:52:48;100720.75;;;20.77;61.15
22830;BME280;11581;51.250;6.778;2023-07-16T03:55:14;100721.59;;;20.77;61.04
22830;BME280;11581;51.250;6.778;2023-07-16T03:57:42;100732.22;;;20.79;60.95
22830;BME280;11581;51.250;6.778;2023-07-16T04:00:09;100734.94;;;20.79;60.72
22830;BME280;11581;51.250;6.778;2023-07-16T04:02:47;100727.41;;;20.81;60.68
22830;BME280;11581;51.250;6.778;2023-07-16T04:05:18;100746.38;;;20.81;59.84
22830;BME280;11581;51.250;6.778;2023-07-16T04:07:45;100732.81;;;20.81;60.13
22830;BME280;11581;51.250;6.778;2023-07-16T04:10:11;100744.50;;;20.81;59.99
22830;BME280;11581;51.250;6.778;2023-07-16T04:12:38;100737.22;;;20.82;60.04
22830;BME280;11581;51.250;6.778;2023-07-16T04:15:07;100748.88;;;20.82;59.23
22830;BME280;11581;51.250;6.778;2023-07-16T04:17:34;100747.81;;;20.83;59.72
22830;BME280;11581;51.250;6.778;2023-07-16T04:20:01;100757.63;;;20.84;59.59
22830;BME280;11581;51.250;6.778;2023-07-16T04:22:29;100723.66;;;20.69;59.25
22830;BME280;11581;51.250;6.778;2023-07-16T04:24:56;100757.41;;;20.86;59.58
22830;BME280;11581;51.250;6.778;2023-07-16T04:27:22;100752.81;;;20.86;59.59
22830;BME280;11581;51.250;6.778;2023-07-16T04:29:49;100761.56;;;20.88;59.55
22830;BME280;11581;51.250;6.778;2023-07-16T04:32:16;100764.06;;;20.90;59.33
22830;BME280;11581;51.250;6.778;2023-07-16T04:34:43;100761.97;;;20.92;59.54
22830;BME280;11581;51.250;6.778;2023-07-16T04:37:09;100759.91;;;20.94;59.11
22830;BME280;11581;51.250;6.778;2023-07-16T04:39:37;100761.38;;;20.96;58.51
22830;BME280;11581;51.250;6.778;2023-07-16T04:42:04;100758.22;;;20.93;58.72
22830;BME280;11581;51.250;6.778;2023-07-16T04:44:31;100770.94;;;20.99;58.85
22830;BME280;11581;51.250;6.778;2023-07-16T04:46:58;100774.69;;;21.04;58.96
22830;BME280;11581;51.250;6.778;2023-07-16T04:49:24;100775.72;;;21.03;58.83
22830;BME280;11581;51.250;6.778;2023-07-16T04:51:51;100792.59;;;21.12;58.88
22830;BME280;11581;51.250;6.778;2023-07-16T04:54:17;100790.06;;;21.17;59.17
22830;BME280;11581;51.250;6.778;2023-07-16T04:56:45;100786.69;;;21.21;58.79
22830;BME280;11581;51.250;6.778;2023-07-16T04:59:12;100790.19;;;21.28;59.75
22830;BME280;11581;51.250;6.778;2023-07-16T05:01:38;100789.75;;;21.38;59.96
22830;BME280;11581;51.250;6.778;2023-07-16T05:04:05;100801.81;;;21.48;59.99
22830;BME280;11581;51.250;6.778;2023-07-16T05:06:33;100798.81;;;21.63;60.17
22830;BME280;11581;51.250;6.778;2023-07-16T05:08:59;100806.25;;;21.80;60.41
22830;BME280;11581;51.250;6.778;2023-07-16T05:11:26;100810.47;;;22.01;60.21
22830;BME280;11581;51.250;6.778;2023-07-16T05:13:54;100819.69;;;22.25;59.19
22830;BME280;11581;51.250;6.778;2023-07-16T05:16:21;100813.84;;;22.52;60.11
22830;BME280;11581;51.250;6.778;2023-07-16T05:18:48;100827.34;;;22.83;59.38
22830;BME280;11581;51.250;6.778;2023-07-16T05:21:14;100790.94;;;23.02;58.59
22830;BME280;11581;51.250;6.778;2023-07-16T05:23:41;100825.66;;;23.54;58.01
22830;BME280;11581;51.250;6.778;2023-07-16T05:26:07;100816.56;;;23.90;57.39
22830;BME280;11581;51.250;6.778;2023-07-16T05:28:34;100821.06;;;24.26;56.50
22830;BME280;11581;51.250;6.778;2023-07-16T05:31:03;100823.84;;;24.72;54.60
22830;BME280;11581;51.250;6.778;2023-07-16T05:33:29;100829.75;;;25.15;54.44
22830;BME280;11581;51.250;6.778;2023-07-16T05:35:56;100833.69;;;25.58;53.71
22830;BME280;11581;51.250;6.778;2023-07-16T05:38:23;100806.78;;;25.95;52.07
22830;BME280;11581;51.250;6.778;2023-07-16T05:40:49;100819.09;;;26.42;51.31
22830;BME280;11581;51.250;6.778;2023-07-16T05:43:16;100820.75;;;26.76;49.70
22830;BME280;11581;51.250;6.778;2023-07-16T05:45:42;100835.59;;;27.18;49.12
22830;BME280;11581;51.250;6.778;2023-07-16T05:48:10;100832.22;;;27.54;46.89
22830;BME280;11581;51.250;6.778;2023-07-16T05:50:37;100829.81;;;27.84;46.68
22830;BME280;11581;51.250;6.778;2023-07-16T05:53:03;100848.53;;;28.19;45.41
22830;BME280;11581;51.250;6.778;2023-07-16T05:55:30;100836.41;;;28.42;43.84
22830;BME280;11581;51.250;6.778;2023-07-16T05:57:57;100800.75;;;28.42;43.11
22830;BME280;11581;51.250;6.778;2023-07-16T06:00:23;100827.38;;;28.78;42.77
22830;BME280;11581;51.250;6.778;2023-07-16T06:02:50;100840.75;;;29.06;42.43
22830;BME280;11581;51.250;6.778;2023-07-16T06:05:18;100801.09;;;28.92;40.03
22830;BME280;11581;51.250;6.778;2023-07-16T06:07:45;100834.03;;;29.38;41.06
22830;BME280;11581;51.250;6.778;2023-07-16T06:10:11;100836.00;;;29.53;40.21
22830;BME280;11581;51.250;6.778;2023-07-16T06:12:38;100832.78;;;29.66;39.68
22830;BME280;11581;51.250;6.778;2023-07-16T06:15:06;100836.13;;;29.78;39.67
22830;BME280;11581;51.250;6.778;2023-07-16T06:17:32;100770.38;;;29.56;39.69
22830;BME280;11581;51.250;6.778;2023-07-16T06:19:59;100829.03;;;30.07;39.04
22830;BME280;11581;51.250;6.778;2023-07-16T06:22:27;100845.31;;;30.24;37.68
22830;BME280;11581;51.250;6.778;2023-07-16T06:24:53;100841.75;;;30.38;38.38
22830;BME280;11581;51.250;6.778;2023-07-16T06:27:20;100839.50;;;30.50;38.12
22830;BME280;11581;51.250;6.778;2023-07-16T06:29:47;100832.34;;;30.59;37.74
22830;BME280;11581;51.250;6.778;2023-07-16T06:32:13;100852.19;;;30.81;37.65
22830;BME280;11581;51.250;6.778;2023-07-16T06:34:40;100841.66;;;30.98;37.17
22830;BME280;11581;51.250;6.778;2023-07-16T06:37:07;100853.19;;;31.25;36.65
22830;BME280;11581;51.250;6.778;2023-07-16T06:39:35;100861.94;;;31.47;35.67
22830;BME280;11581;51.250;6.778;2023-07-16T06:42:01;100856.28;;;31.72;36.66
22830;BME280;11581;51.250;6.778;2023-07-16T06:44:28;100857.25;;;32.01;36.36
22830;BME280;11581;51.250;6.778;2023-07-16T06:46:54;100869.47;;;32.29;35.72
22830;BME280;11581;51.250;6.778;2023-07-16T06:49:21;100861.84;;;32.55;34.86
22830;BME280;11581;51.250;6.778;2023-07-16T06:51:48;100870.47;;;32.77;33.87
22830;BME280;11581;51.250;6.778;2023-07-16T06:54:15;100868.16;;;32.89;33.29
22830;BME280;11581;51.250;6.778;2023-07-16T06:56:43;100858.13;;;32.98;32.32
22830;BME280;11581;51.250;6.778;2023-07-16T06:59:09;100869.59;;;33.10;33.06
22830;BME280;11581;51.250;6.778;2023-07-16T07:01:36;100824.69;;;32.99;32.50
22830;BME280;11581;51.250;6.778;2023-07-16T07:04:03;100863.94;;;33.25;32.66
22830;BME280;11581;51.250;6.778;2023-07-16T07:06:29;100876.78;;;33.34;32.38
22830;BME280;11581;51.250;6.778;2023-07-16T07:08:56;100882.97;;;33.50;31.54
22830;BME280;11581;51.250;6.778;2023-07-16T07:11:23;100865.78;;;33.53;31.54
22830;BME280;11581;51.250;6.778;2023-07-16T07:13:52;100867.84;;;33.66;29.81
22830;BME280;11581;51.250;6.778;2023-07-16T07:16:19;100879.88;;;33.75;31.01
22830;BME280;11581;51.250;6.778;2023-07-16T07:18:45;100867.03;;;33.84;30.87
22830;BME280;11581;51.250;6.778;2023-07-16T07:21:12;100875.22;;;33.94;31.17
22830;BME280;11581;51.250;6.778;2023-07-16T07:23:39;100864.00;;;34.04;31.30
22830;BME280;11581;51.250;6.778;2023-07-16T07:26:05;100867.00;;;34.26;31.23
22830;BME280;11581;51.250;6.778;2023-07-16T07:28:32;100867.22;;;34.48;30.61
22830;BME280;11581;51.250;6.778;2023-07-16T07:31:00;100882.94;;;34.66;28.68
22830;BME280;11581;51.250;6.778;2023-07-16T07:33:27;100867.50;;;34.79;28.98
22830;BME280;11581;51.250;6.778;2023-07-16T07:35:54;100873.81;;;34.84;28.58
22830;BME280;11581;51.250;6.778;2023-07-16T07:38:20;100870.88;;;34.76;28.63
22830;BME280;11581;51.250;6.778;2023-07-16T07:40:47;100873.09;;;34.60;28.68
22830;BME280;11581;51.250;6.778;2023-07-16T07:43:14;100872.22;;;34.46;28.94
22830;BME280;11581;51.250;6.778;2023-07-16T07:45:40;100886.78;;;34.38;29.17
22830;BME280;11581;51.250;6.778;2023-07-16T07:48:08;100848.28;;;34.18;28.44
22830;BME280;11581;51.250;6.778;2023-07-16T07:50:35;100906.16;;;34.38;28.89
22830;BME280;11581;51.250;6.778;2023-07-16T07:53:01;100883.16;;;34.38;28.72
22830;BME280;11581;51.250;6.778;2023-07-16T07:55:28;100882.63;;;34.36;29.06
22830;BME280;11581;51.250;6.778;2023-07-16T07:57:54;100881.22;;;34.38;28.91
22830;BME280;11581;51.250;6.778;2023-07-16T08:00:21;100877.25;;;34.44;29.09
22830;BME280;11581;51.250;6.778;2023-07-16T08:02:48;100864.31;;;34.40;29.13
22830;BME280;11581;51.250;6.778;2023-07-16T08:05:16;100882.75;;;34.63;28.03
22830;BME280;11581;51.250;6.778;2023-07-16T08:07:42;100892.00;;;34.72;28.53
22830;BME280;11581;51.250;6.778;2023-07-16T08:10:10;100894.47;;;34.73;27.83
22830;BME280;11581;51.250;6.778;2023-07-16T08:12:37;100884.28;;;34.87;27.65
22830;BME280;11581;51.250;6.778;2023-07-16T08:15:04;100898.97;;;34.88;27.70
22830;BME280;11581;51.250;6.778;2023-07-16T08:17:32;100847.56;;;34.63;27.70
22830;BME280;11581;51.250;6.778;2023-07-16T08:19:59;100896.53;;;34.81;27.32
22830;BME280;11581;51.250;6.778;2023-07-16T08:22:27;100885.94;;;34.70;27.09
22830;BME280;11581;51.250;6.778;2023-07-16T08:24:54;100903.16;;;34.67;27.72
22830;BME280;11581;51.250;6.778;2023-07-16T08:27:20;100904.06;;;34.62;26.99
22830;BME280;11581;51.250;6.778;2023-07-16T08:29:47;100900.94;;;34.50;27.04
22830;BME280;11581;51.250;6.778;2023-07-16T08:32:14;100902.38;;;34.29;26.83
22830;BME280;11581;51.250;6.778;2023-07-16T08:34:40;100901.03;;;34.08;27.25
22830;BME280;11581;51.250;6.778;2023-07-16T08:37:09;100856.31;;;33.59;26.55
22830;BME280;11581;51.250;6.778;2023-07-16T08:39:37;100878.56;;;33.49;27.08
22830;BME280;11581;51.250;6.778;2023-07-16T08:42:04;100918.41;;;33.48;27.42
22830;BME280;11581;51.250;6.778;2023-07-16T08:44:32;100899.59;;;33.21;27.20
22830;BME280;11581;51.250;6.778;2023-07-16T08:46:59;100912.28;;;32.99;28.20
22830;BME280;11581;51.250;6.778;2023-07-16T08:49:29;100922.94;;;32.77;27.28
22830;BME280;11581;51.250;6.778;2023-07-16T08:51:56;100909.22;;;32.67;28.30
22830;BME280;11581;51.250;6.778;2023-07-16T08:54:23;100904.88;;;32.61;29.02
22830;BME280;11581;51.250;6.778;2023-07-16T08:56:52;100912.03;;;32.62;28.34
22830;BME280;11581;51.250;6.778;2023-07-16T08:59:20;100920.50;;;32.70;28.42
22830;BME280;11581;51.250;6.778;2023-07-16T09:01:47;100886.72;;;32.50;28.81
22830;BME280;11581;51.250;6.778;2023-07-16T09:04:14;100912.28;;;32.65;28.28
22830;BME280;11581;51.250;6.778;2023-07-16T09:06:41;100910.19;;;32.52;28.52
22830;BME280;11581;51.250;6.778;2023-07-16T09:09:07;100930.44;;;32.33;28.36
22830;BME280;11581;51.250;6.778;2023-07-16T09:11:34;100927.59;;;32.04;28.02
22830;BME280;11581;51.250;6.778;2023-07-16T09:14:02;100921.94;;;31.70;28.01
22830;BME280;11581;51.250;6.778;2023-07-16T09:16:32;100928.94;;;31.38;28.46
22830;BME280;11581;51.250;6.778;2023-07-16T09:19:05;100939.16;;;31.07;28.51
22830;BME280;11581;51.250;6.778;2023-07-16T09:21:32;100931.47;;;30.84;29.38
22830;BME280;11581;51.250;6.778;2023-07-16T09:24:00;100928.16;;;30.57;29.64
22830;BME280;11581;51.250;6.778;2023-07-16T09:26:26;100933.34;;;30.34;30.04
22830;BME280;11581;51.250;6.778;2023-07-16T09:28:53;100942.91;;;30.16;30.96
22830;BME280;11581;51.250;6.778;2023-07-16T09:31:21;100956.34;;;30.07;30.44
22830;BME280;11581;51.250;6.778;2023-07-16T09:33:48;100893.56;;;29.79;30.95
22830;BME280;11581;51.250;6.778;2023-07-16T09:36:23;100927.69;;;29.93;29.81
22830;BME280;11581;51.250;6.778;2023-07-16T09:38:50;100945.06;;;30.04;30.86
22830;BME280;11581;51.250;6.778;2023-07-16T09:41:18;100936.84;;;30.09;31.14
22830;BME280;11581;51.250;6.778;2023-07-16T09:43:45;100931.94;;;30.21;31.76
22830;BME280;11581;51.250;6.778;2023-07-16T09:46:12;100919.03;;;30.32;31.39
22830;BME280;11581;51.250;6.778;2023-07-16T09:48:40;100938.59;;;30.60;30.13
22830;BME280;11581;51.250;6.778;2023-07-16T09:51:07;100939.97;;;30.68;29.78
22830;BME280;11581;51.250;6.778;2023-07-16T09:53:39;100938.03;;;30.58;29.38
22830;BME280;11581;51.250;6.778;2023-07-16T09:56:08;100941.63;;;30.49;30.39
22830;BME280;11581;51.250;6.778;2023-07-16T09:58:36;100942.72;;;30.43;30.93
22830;BME280;11581;51.250;6.778;2023-07-16T10:01:03;100932.25;;;30.50;31.55
22830;BME280;11581;51.250;6.778;2023-07-16T10:03:31;100934.19;;;30.64;31.10
22830;BME280;11581;51.250;6.778;2023-07-16T10:06:06;100954.03;;;30.81;29.88
22830;BME280;11581;51.250;6.778;2023-07-16T10:08:34;100946.63;;;30.92;30.66
22830;BME280;11581;51.250;6.778;2023-07-16T10:11:01;100935.59;;;30.82;30.21
22830;BME280;11581;51.250;6.778;2023-07-16T10:13:27;100949.66;;;30.80;30.31
22830;BME280;11581;51.250;6.778;2023-07-16T10:15:55;100932.25;;;30.65;30.02
22830;BME280;11581;51.250;6.778;2023-07-16T10:18:29;100938.88;;;30.49;30.14
22830;BME280;11581;51.250;6.778;2023-07-16T10:21:01;100935.28;;;30.38;30.44
22830;BME280;11581;51.250;6.778;2023-07-16T10:23:38;100946.28;;;30.43;30.32
22830;BME280;11581;51.250;6.778;2023-07-16T10:26:09;100945.47;;;30.48;30.57
22830;BME280;11581;51.250;6.778;2023-07-16T10:28:37;100943.53;;;30.53;31.56
22830;BME280;11581;51.250;6.778;2023-07-16T10:31:05;100947.13;;;30.54;30.59
22830;BME280;11581;51.250;6.778;2023-07-16T10:33:33;100935.53;;;30.42;31.06
22830;BME280;11581;51.250;6.778;2023-07-16T10:36:03;100947.94;;;30.39;30.84
22830;BME280;11581;51.250;6.778;2023-07-16T10:38:29;100939.94;;;30.28;30.84
22830;BME280;11581;51.250;6.778;2023-07-16T10:40:59;100944.53;;;30.17;30.33
22830;BME280;11581;51.250;6.778;2023-07-16T10:43:26;100953.59;;;30.12;30.61
22830;BME280;11581;51.250;6.778;2023-07-16T10:45:53;100941.25;;;30.05;30.92
22830;BME280;11581;51.250;6.778;2023-07-16T10:48:24;100978.63;;;30.06;29.73
22830;BME280;11581;51.250;6.778;2023-07-16T10:50:53;100939.03;;;30.07;30.15
22830;BME280;11581;51.250;6.778;2023-07-16T10:53:20;100950.03;;;30.17;30.98
22830;BME280;11581;51.250;6.778;2023-07-16T10:55:46;100950.69;;;30.34;30.97
22830;BME280;11581;51.250;6.778;2023-07-16T10:58:14;100952.91;;;30.57;30.55
22830;BME280;11581;51.250;6.778;2023-07-16T11:00:41;100960.13;;;30.83;30.53
22830;BME280;11581;51.250;6.778;2023-07-16T11:03:09;100943.03;;;30.96;30.36
22830;BME280;11581;51.250;6.778;2023-07-16T11:05:35;100951.25;;;31.16;29.97
22830;BME280;11581;51.250;6.778;2023-07-16T11:08:02;100904.19;;;31.03;29.76
22830;BME280;11581;51.250;6.778;2023-07-16T11:10:29;100956.22;;;31.34;29.56
22830;BME280;11581;51.250;6.778;2023-07-16T11:12:56;100948.78;;;31.35;29.47
22830;BME280;11581;51.250;6.778;2023-07-16T11:15:32;100890.16;;;30.94;28.08
22830;BME280;11581;51.250;6.778;2023-07-16T11:17:59;100952.91;;;31.22;29.30
22830;BME280;11581;51.250;6.778;2023-07-16T11:20:26;100957.34;;;31.08;28.65
22830;BME280;11581;51.250;6.778;2023-07-16T11:22:57;100955.72;;;30.92;29.13
22830;BME280;11581;51.250;6.778;2023-07-16T11:25:24;100969.41;;;30.72;28.91
22830;BME280;11581;51.250;6.778;2023-07-16T11:27:54;100963.66;;;30.49;28.86
22830;BME280;11581;51.250;6.778;2023-07-16T11:30:22;100954.44;;;30.13;29.40
22830;BME280;11581;51.250;6.778;2023-07-16T11:32:51;100975.03;;;30.05;29.68
22830;BME280;11581;51.250;6.778;2023-07-16T11:35:19;100980.47;;;29.85;29.85
22830;BME280;11581;51.250;6.778;2023-07-16T11:37:46;100969.66;;;29.69;30.29
22830;BME280;11581;51.250;6.778;2023-07-16T11:40:15;100980.03;;;29.57;30.29
22830;BME280;11581;51.250;6.778;2023-07-16T11:42:45;101002.22;;;29.45;30.69
22830;BME280;11581;51.250;6.778;2023-07-16T11:45:16;100970.50;;;29.28;30.32
22830;BME280;11581;51.250;6.778;2023-07-16T11:47:43;100973.78;;;29.25;31.64
22830;BME280;11581;51.250;6.778;2023-07-16T11:50:11;100977.06;;;29.22;31.31
22830;BME280;11581;51.250;6.778;2023-07-16T11:52:41;100967.69;;;29.18;31.53
22830;BME280;11581;51.250;6.778;2023-07-16T11:55:08;100974.91;;;29.29;31.32
22830;BME280;11581;51.250;6.778;2023-07-16T11:57:34;100986.19;;;29.32;31.69
22830;BME280;11581;51.250;6.778;2023-07-16T12:00:01;100982.09;;;29.40;31.98
22830;BME280;11581;51.250;6.778;2023-07-16T12:02:30;100978.88;;;29.53;32.32
22830;BME280;11581;51.250;6.778;2023-07-16T12:04:56;100977.09;;;29.73;31.51
22830;BME280;11581;51.250;6.778;2023-07-16T12:07:33;100985.69;;;29.87;30.57
22830;BME280;11581;51.250;6.778;2023-07-16T12:10:00;100975.84;;;29.96;31.54
22830;BME280;11581;51.250;6.778;2023-07-16T12:12:27;100965.41;;;30.08;31.57
22830;BME280;11581;51.250;6.778;2023-07-16T12:14:53;100979.56;;;30.27;31.39
22830;BME280;11581;51.250;6.778;2023-07-16T12:17:20;100965.81;;;30.47;30.96
22830;BME280;11581;51.250;6.778;2023-07-16T12:19:46;100967.78;;;30.61;30.34
22830;BME280;11581;51.250;6.778;2023-07-16T12:22:16;100967.78;;;30.71;29.38
22830;BME280;11581;51.250;6.778;2023-07-16T12:24:45;100977.44;;;30.74;29.26
22830;BME280;11581;51.250;6.778;2023-07-16T12:27:11;100977.72;;;30.82;29.69
22830;BME280;11581;51.250;6.778;2023-07-16T12:29:38;100973.59;;;30.85;29.83
22830;BME280;11581;51.250;6.778;2023-07-16T12:32:06;100967.56;;;30.88;29.53
22830;BME280;11581;51.250;6.778;2023-07-16T12:34:33;100949.63;;;30.75;29.67
22830;BME280;11581;51.250;6.778;2023-07-16T12:37:00;100964.53;;;30.89;29.07
22830;BME280;11581;51.250;6.778;2023-07-16T12:39:27;100972.75;;;30.94;29.27
22830;BME280;11581;51.250;6.778;2023-07-16T12:41:55;100981.84;;;31.00;28.72
22830;BME280;11581;51.250;6.778;2023-07-16T12:44:22;100982.13;;;30.98;28.94
22830;BME280;11581;51.250;6.778;2023-07-16T12:46:49;100973.06;;;30.98;29.15
22830;BME280;11581;51.250;6.778;2023-07-16T12:49:15;101000.28;;;31.04;29.69
22830;BME280;11581;51.250;6.778;2023-07-16T12:51:42;100985.44;;;31.15;29.34